sensor_id;sensor_type;location;lat;lon;timestamp;P1;durP1;ratioP1;P2;durP2;ratioP2
23782;SDS011;12071;50.850;4.446;2023-07-29T00:01:08;1.98;;;1.40;;
23782;SDS011;12071;50.850;4.446;2023-07-29T00:03:33;1.80;;;1.20;;
23782;SDS011;12071;50.850;4.446;2023-07-29T00:05:59;1.35;;;1.10;;
23782;SDS011;12071;50.850;4.446;2023-07-29T00:08:24;3.40;;;1.75;;
23782;SDS011;12071;50.850;4.446;2023-07-29T00:10:50;1.45;;;1.17;;
23782;SDS011;12071;50.850;4.446;2023-07-29T00:13:16;3.88;;;1.10;;
23782;SDS011;12071;50.850;4.446;2023-07-29T00:15:41;2.83;;;1.20;;
23782;SDS011;12071;50.850;4.446;2023-07-29T00:18:07;0.85;;;0.82;;
23782;SDS011;12071;50.850;4.446;2023-07-29T00:20:33;1.23;;;0.98;;
23782;SDS011;12071;50.850;4.446;2023-07-29T00:22:58;2.67;;;1.08;;
23782;SDS011;12071;50.850;4.446;2023-07-29T00:25:24;0.95;;;0.85;;
23782;SDS011;12071;50.850;4.446;2023-07-29T00:27:50;1.23;;;1.02;;
23782;SDS011;12071;50.850;4.446;2023-07-29T00:30:15;2.97;;;1.20;;
23782;SDS011;12071;50.850;4.446;2023-07-29T00:32:41;2.35;;;1.10;;
23782;SDS011;12071;50.850;4.446;2023-07-29T00:35:07;1.10;;;0.90;;
23782;SDS011;12071;50.850;4.446;2023-07-29T00:37:33;1.92;;;1.27;;
23782;SDS011;12071;50.850;4.446;2023-07-29T00:39:58;2.08;;;1.20;;
23782;SDS011;12071;50.850;4.446;2023-07-29T00:42:24;2.83;;;1.05;;
23782;SDS011;12071;50.850;4.446;2023-07-29T00:44:50;2.10;;;1.25;;
23782;SDS011;12071;50.850;4.446;2023-07-29T00:47:16;2.97;;;0.90;;
23782;SDS011;12071;50.850;4.446;2023-07-29T00:49:43;2.67;;;1.20;;
23782;SDS011;12071;50.850;4.446;2023-07-29T00:52:09;1.33;;;1.02;;
23782;SDS011;12071;50.850;4.446;2023-07-29T00:54:37;2.17;;;1.13;;
23782;SDS011;12071;50.850;4.446;2023-07-29T00:57:04;1.98;;;1.30;;
23782;SDS011;12071;50.850;4.446;2023-07-29T00:59:31;2.47;;;1.25;;
23782;SDS011;12071;50.850;4.446;2023-07-29T01:01:57;2.20;;;1.05;;
23782;SDS011;12071;50.850;4.446;2023-07-29T01:04:23;2.58;;;1.00;;
23782;SDS011;12071;50.850;4.446;2023-07-29T01:09:25;1.35;;;1.10;;
23782;SDS011;12071;50.850;4.446;2023-07-29T01:15:12;2.15;;;1.45;;
23782;SDS011;12071;50.850;4.446;2023-07-29T01:17:59;1.90;;;1.23;;
23782;SDS011;12071;50.850;4.446;2023-07-29T01:20:29;2.15;;;1.27;;
23782;SDS011;12071;50.850;4.446;2023-07-29T01:22:58;3.47;;;1.20;;
23782;SDS011;12071;50.850;4.446;2023-07-29T01:25:24;3.80;;;1.30;;
23782;SDS011;12071;50.850;4.446;2023-07-29T01:27:50;2.55;;;1.30;;
23782;SDS011;12071;50.850;4.446;2023-07-29T01:30:20;3.72;;;1.73;;
23782;SDS011;12071;50.850;4.446;2023-07-29T01:35:46;2.35;;;1.10;;
23782;SDS011;12071;50.850;4.446;2023-07-29T01:38:27;4.07;;;1.50;;
23782;SDS011;12071;50.850;4.446;2023-07-29T01:41:01;1.85;;;1.50;;
23782;SDS011;12071;50.850;4.446;2023-07-29T01:43:31;3.72;;;1.52;;
23782;SDS011;12071;50.850;4.446;2023-07-29T01:45:57;4.45;;;1.60;;
23782;SDS011;12071;50.850;4.446;2023-07-29T01:48:23;1.95;;;1.38;;
23782;SDS011;12071;50.850;4.446;2023-07-29T01:50:49;3.97;;;1.48;;
23782;SDS011;12071;50.850;4.446;2023-07-29T01:53:15;2.70;;;1.55;;
23782;SDS011;12071;50.850;4.446;2023-07-29T01:55:42;2.90;;;1.40;;
23782;SDS011;12071;50.850;4.446;2023-07-29T01:58:09;1.98;;;1.42;;
23782;SDS011;12071;50.850;4.446;2023-07-29T02:00:35;5.43;;;1.35;;
23782;SDS011;12071;50.850;4.446;2023-07-29T02:03:01;5.75;;;1.73;;
23782;SDS011;12071;50.850;4.446;2023-07-29T02:05:26;2.33;;;1.30;;
23782;SDS011;12071;50.850;4.446;2023-07-29T02:07:52;3.10;;;1.40;;
23782;SDS011;12071;50.850;4.446;2023-07-29T02:10:18;2.45;;;1.50;;
23782;SDS011;12071;50.850;4.446;2023-07-29T02:12:43;3.13;;;1.60;;
23782;SDS011;12071;50.850;4.446;2023-07-29T02:15:09;3.30;;;1.55;;
23782;SDS011;12071;50.850;4.446;2023-07-29T02:17:34;3.97;;;1.77;;
23782;SDS011;12071;50.850;4.446;2023-07-29T02:20:01;2.10;;;1.42;;
23782;SDS011;12071;50.850;4.446;2023-07-29T02:22:26;4.90;;;1.60;;
23782;SDS011;12071;50.850;4.446;2023-07-29T02:24:52;3.10;;;1.48;;
23782;SDS011;12071;50.850;4.446;2023-07-29T02:27:17;2.22;;;1.83;;
23782;SDS011;12071;50.850;4.446;2023-07-29T02:29:43;2.85;;;1.83;;
23782;SDS011;12071;50.850;4.446;2023-07-29T02:32:09;3.17;;;1.52;;
23782;SDS011;12071;50.850;4.446;2023-07-29T02:34:34;3.38;;;1.50;;
23782;SDS011;12071;50.850;4.446;2023-07-29T02:37:00;3.13;;;1.27;;
23782;SDS011;12071;50.850;4.446;2023-07-29T02:39:25;5.95;;;1.20;;
23782;SDS011;12071;50.850;4.446;2023-07-29T02:41:51;3.92;;;1.30;;
23782;SDS011;12071;50.850;4.446;2023-07-29T02:44:16;3.75;;;1.58;;
23782;SDS011;12071;50.850;4.446;2023-07-29T02:46:42;4.38;;;1.42;;
23782;SDS011;12071;50.850;4.446;2023-07-29T02:49:08;3.58;;;1.63;;
23782;SDS011;12071;50.850;4.446;2023-07-29T02:51:33;3.28;;;1.60;;
23782;SDS011;12071;50.850;4.446;2023-07-29T02:53:59;2.60;;;1.50;;
23782;SDS011;12071;50.850;4.446;2023-07-29T02:56:25;2.40;;;1.50;;
23782;SDS011;12071;50.850;4.446;2023-07-29T02:58:51;2.13;;;1.23;;
23782;SDS011;12071;50.850;4.446;2023-07-29T03:01:17;4.65;;;1.60;;
23782;SDS011;12071;50.850;4.446;2023-07-29T03:03:43;3.60;;;1.45;;
23782;SDS011;12071;50.850;4.446;2023-07-29T03:06:10;2.28;;;1.50;;
23782;SDS011;12071;50.850;4.446;2023-07-29T03:08:36;3.00;;;1.50;;
23782;SDS011;12071;50.850;4.446;2023-07-29T03:11:09;5.78;;;1.73;;
23782;SDS011;12071;50.850;4.446;2023-07-29T03:13:38;3.03;;;1.60;;
23782;SDS011;12071;50.850;4.446;2023-07-29T03:16:05;2.50;;;1.58;;
23782;SDS011;12071;50.850;4.446;2023-07-29T03:18:35;3.87;;;1.60;;
23782;SDS011;12071;50.850;4.446;2023-07-29T03:21:01;1.35;;;1.13;;
23782;SDS011;12071;50.850;4.446;2023-07-29T03:23:28;4.55;;;1.70;;
23782;SDS011;12071;50.850;4.446;2023-07-29T03:25:55;3.63;;;1.80;;
23782;SDS011;12071;50.850;4.446;2023-07-29T03:28:21;2.53;;;1.67;;
23782;SDS011;12071;50.850;4.446;2023-07-29T03:30:48;2.55;;;1.45;;
23782;SDS011;12071;50.850;4.446;2023-07-29T03:33:14;2.20;;;1.65;;
23782;SDS011;12071;50.850;4.446;2023-07-29T03:35:39;4.85;;;1.88;;
23782;SDS011;12071;50.850;4.446;2023-07-29T03:38:08;3.25;;;1.60;;
23782;SDS011;12071;50.850;4.446;2023-07-29T03:40:33;3.67;;;1.77;;
23782;SDS011;12071;50.850;4.446;2023-07-29T03:42:59;3.13;;;1.67;;
23782;SDS011;12071;50.850;4.446;2023-07-29T03:45:24;1.77;;;1.50;;
23782;SDS011;12071;50.850;4.446;2023-07-29T03:47:50;4.20;;;1.70;;
23782;SDS011;12071;50.850;4.446;2023-07-29T03:50:15;3.97;;;1.67;;
23782;SDS011;12071;50.850;4.446;2023-07-29T03:52:41;5.00;;;1.55;;
23782;SDS011;12071;50.850;4.446;2023-07-29T03:55:07;3.40;;;1.60;;
23782;SDS011;12071;50.850;4.446;2023-07-29T03:57:33;4.43;;;1.80;;
23782;SDS011;12071;50.850;4.446;2023-07-29T03:59:58;3.08;;;1.90;;
23782;SDS011;12071;50.850;4.446;2023-07-29T04:02:24;2.53;;;1.60;;
23782;SDS011;12071;50.850;4.446;2023-07-29T04:04:49;2.42;;;1.75;;
23782;SDS011;12071;50.850;4.446;2023-07-29T04:07:15;3.28;;;1.52;;
23782;SDS011;12071;50.850;4.446;2023-07-29T04:09:40;2.10;;;1.90;;
23782;SDS011;12071;50.850;4.446;2023-07-29T04:12:08;3.15;;;1.95;;
23782;SDS011;12071;50.850;4.446;2023-07-29T04:14:34;3.55;;;1.55;;
23782;SDS011;12071;50.850;4.446;2023-07-29T04:17:00;3.13;;;1.50;;
23782;SDS011;12071;50.850;4.446;2023-07-29T04:19:26;3.58;;;1.67;;
23782;SDS011;12071;50.850;4.446;2023-07-29T04:21:51;3.30;;;1.52;;
23782;SDS011;12071;50.850;4.446;2023-07-29T04:24:17;2.25;;;1.67;;
23782;SDS011;12071;50.850;4.446;2023-07-29T04:26:45;4.15;;;1.70;;
23782;SDS011;12071;50.850;4.446;2023-07-29T04:29:11;3.38;;;1.88;;
23782;SDS011;12071;50.850;4.446;2023-07-29T04:31:37;3.50;;;1.48;;
23782;SDS011;12071;50.850;4.446;2023-07-29T04:34:04;3.85;;;1.88;;
23782;SDS011;12071;50.850;4.446;2023-07-29T04:36:30;3.35;;;1.60;;
23782;SDS011;12071;50.850;4.446;2023-07-29T04:38:55;2.75;;;1.67;;
23782;SDS011;12071;50.850;4.446;2023-07-29T04:41:21;1.77;;;1.35;;
23782;SDS011;12071;50.850;4.446;2023-07-29T04:43:46;2.85;;;1.52;;
23782;SDS011;12071;50.850;4.446;2023-07-29T04:46:14;6.60;;;1.60;;
23782;SDS011;12071;50.850;4.446;2023-07-29T04:48:40;4.53;;;1.38;;
23782;SDS011;12071;50.850;4.446;2023-07-29T04:51:05;3.40;;;1.58;;
23782;SDS011;12071;50.850;4.446;2023-07-29T04:53:31;1.98;;;1.52;;
23782;SDS011;12071;50.850;4.446;2023-07-29T04:55:57;3.25;;;1.60;;
23782;SDS011;12071;50.850;4.446;2023-07-29T04:58:22;4.18;;;1.23;;
23782;SDS011;12071;50.850;4.446;2023-07-29T05:00:48;2.17;;;1.50;;
23782;SDS011;12071;50.850;4.446;2023-07-29T05:03:14;3.05;;;1.38;;
23782;SDS011;12071;50.850;4.446;2023-07-29T05:05:39;1.85;;;1.67;;
23782;SDS011;12071;50.850;4.446;2023-07-29T05:08:05;2.22;;;1.58;;
23782;SDS011;12071;50.850;4.446;2023-07-29T05:10:30;5.60;;;1.60;;
23782;SDS011;12071;50.850;4.446;2023-07-29T05:12:56;2.97;;;1.35;;
23782;SDS011;12071;50.850;4.446;2023-07-29T05:15:21;3.05;;;1.55;;
23782;SDS011;12071;50.850;4.446;2023-07-29T05:17:47;4.53;;;1.63;;
23782;SDS011;12071;50.850;4.446;2023-07-29T05:20:13;3.80;;;1.40;;
23782;SDS011;12071;50.850;4.446;2023-07-29T05:22:39;3.10;;;1.70;;
23782;SDS011;12071;50.850;4.446;2023-07-29T05:25:05;2.30;;;1.50;;
23782;SDS011;12071;50.850;4.446;2023-07-29T05:27:31;3.60;;;1.23;;
23782;SDS011;12071;50.850;4.446;2023-07-29T05:29:57;3.50;;;1.30;;
23782;SDS011;12071;50.850;4.446;2023-07-29T05:32:22;3.08;;;1.25;;
23782;SDS011;12071;50.850;4.446;2023-07-29T05:34:48;3.60;;;1.60;;
23782;SDS011;12071;50.850;4.446;2023-07-29T05:37:13;3.80;;;1.30;;
23782;SDS011;12071;50.850;4.446;2023-07-29T05:39:39;2.85;;;1.20;;
23782;SDS011;12071;50.850;4.446;2023-07-29T05:42:05;3.00;;;1.38;;
23782;SDS011;12071;50.850;4.446;2023-07-29T05:44:31;2.92;;;1.35;;
23782;SDS011;12071;50.850;4.446;2023-07-29T05:46:56;1.90;;;1.23;;
23782;SDS011;12071;50.850;4.446;2023-07-29T05:49:22;2.17;;;1.10;;
23782;SDS011;12071;50.850;4.446;2023-07-29T05:51:48;4.35;;;1.60;;
23782;SDS011;12071;50.850;4.446;2023-07-29T05:54:15;1.90;;;1.02;;
23782;SDS011;12071;50.850;4.446;2023-07-29T05:56:42;1.70;;;1.23;;
23782;SDS011;12071;50.850;4.446;2023-07-29T05:59:08;2.85;;;0.90;;
23782;SDS011;12071;50.850;4.446;2023-07-29T06:01:33;2.70;;;1.20;;
23782;SDS011;12071;50.850;4.446;2023-07-29T06:03:59;1.95;;;1.00;;
23782;SDS011;12071;50.850;4.446;2023-07-29T06:06:26;4.40;;;1.55;;
23782;SDS011;12071;50.850;4.446;2023-07-29T06:08:52;2.53;;;1.38;;
23782;SDS011;12071;50.850;4.446;2023-07-29T06:11:17;1.42;;;1.02;;
23782;SDS011;12071;50.850;4.446;2023-07-29T06:13:43;2.53;;;1.20;;
23782;SDS011;12071;50.850;4.446;2023-07-29T06:16:08;2.83;;;1.02;;
23782;SDS011;12071;50.850;4.446;2023-07-29T06:18:34;1.73;;;1.10;;
23782;SDS011;12071;50.850;4.446;2023-07-29T06:21:00;1.80;;;1.10;;
23782;SDS011;12071;50.850;4.446;2023-07-29T06:23:25;2.92;;;1.10;;
23782;SDS011;12071;50.850;4.446;2023-07-29T06:25:51;1.85;;;0.90;;
23782;SDS011;12071;50.850;4.446;2023-07-29T06:28:16;1.75;;;1.10;;
23782;SDS011;12071;50.850;4.446;2023-07-29T06:30:42;1.90;;;1.20;;
23782;SDS011;12071;50.850;4.446;2023-07-29T06:33:08;2.03;;;1.10;;
23782;SDS011;12071;50.850;4.446;2023-07-29T06:35:34;3.28;;;1.00;;
23782;SDS011;12071;50.850;4.446;2023-07-29T06:37:59;2.20;;;0.90;;
23782;SDS011;12071;50.850;4.446;2023-07-29T06:40:25;3.45;;;1.27;;
23782;SDS011;12071;50.850;4.446;2023-07-29T06:42:51;1.30;;;0.90;;
23782;SDS011;12071;50.850;4.446;2023-07-29T06:45:16;2.20;;;0.80;;
23782;SDS011;12071;50.850;4.446;2023-07-29T06:47:42;1.33;;;1.20;;
23782;SDS011;12071;50.850;4.446;2023-07-29T06:50:08;3.35;;;1.10;;
23782;SDS011;12071;50.850;4.446;2023-07-29T06:52:34;1.48;;;0.90;;
23782;SDS011;12071;50.850;4.446;2023-07-29T06:54:59;1.80;;;0.90;;
23782;SDS011;12071;50.850;4.446;2023-07-29T06:57:25;1.52;;;1.00;;
23782;SDS011;12071;50.850;4.446;2023-07-29T06:59:50;0.93;;;0.70;;
23782;SDS011;12071;50.850;4.446;2023-07-29T07:02:19;1.98;;;0.98;;
23782;SDS011;12071;50.850;4.446;2023-07-29T07:04:48;3.55;;;1.20;;
23782;SDS011;12071;50.850;4.446;2023-07-29T07:07:13;1.27;;;0.88;;
23782;SDS011;12071;50.850;4.446;2023-07-29T07:09:40;2.63;;;1.02;;
23782;SDS011;12071;50.850;4.446;2023-07-29T07:12:06;1.42;;;1.00;;
23782;SDS011;12071;50.850;4.446;2023-07-29T07:14:32;3.00;;;1.02;;
23782;SDS011;12071;50.850;4.446;2023-07-29T07:16:57;1.23;;;0.70;;
23782;SDS011;12071;50.850;4.446;2023-07-29T07:19:23;2.63;;;0.98;;
23782;SDS011;12071;50.850;4.446;2023-07-29T07:21:48;1.02;;;0.82;;
23782;SDS011;12071;50.850;4.446;2023-07-29T07:24:14;2.13;;;0.90;;
23782;SDS011;12071;50.850;4.446;2023-07-29T07:26:40;2.75;;;1.00;;
23782;SDS011;12071;50.850;4.446;2023-07-29T07:29:05;2.65;;;1.00;;
23782;SDS011;12071;50.850;4.446;2023-07-29T07:31:32;2.28;;;0.90;;
23782;SDS011;12071;50.850;4.446;2023-07-29T07:33:59;1.83;;;0.98;;
23782;SDS011;12071;50.850;4.446;2023-07-29T07:36:25;1.77;;;0.80;;
23782;SDS011;12071;50.850;4.446;2023-07-29T07:38:51;1.25;;;0.88;;
23782;SDS011;12071;50.850;4.446;2023-07-29T07:41:16;1.20;;;0.80;;
23782;SDS011;12071;50.850;4.446;2023-07-29T07:43:42;2.47;;;0.80;;
23782;SDS011;12071;50.850;4.446;2023-07-29T07:46:07;2.03;;;0.80;;
23782;SDS011;12071;50.850;4.446;2023-07-29T07:48:33;1.58;;;0.90;;
23782;SDS011;12071;50.850;4.446;2023-07-29T07:50:59;2.10;;;0.95;;
23782;SDS011;12071;50.850;4.446;2023-07-29T07:53:24;2.75;;;1.00;;
23782;SDS011;12071;50.850;4.446;2023-07-29T07:55:50;1.80;;;0.95;;
23782;SDS011;12071;50.850;4.446;2023-07-29T07:58:16;5.55;;;1.17;;
23782;SDS011;12071;50.850;4.446;2023-07-29T08:00:42;3.30;;;1.10;;
23782;SDS011;12071;50.850;4.446;2023-07-29T08:03:08;1.50;;;0.95;;
23782;SDS011;12071;50.850;4.446;2023-07-29T08:05:33;2.80;;;1.02;;
23782;SDS011;12071;50.850;4.446;2023-07-29T08:07:59;1.48;;;0.85;;
23782;SDS011;12071;50.850;4.446;2023-07-29T08:10:24;1.85;;;0.80;;
23782;SDS011;12071;50.850;4.446;2023-07-29T08:12:50;5.07;;;1.05;;
23782;SDS011;12071;50.850;4.446;2023-07-29T08:15:16;2.33;;;1.20;;
23782;SDS011;12071;50.850;4.446;2023-07-29T08:17:42;1.40;;;0.70;;
23782;SDS011;12071;50.850;4.446;2023-07-29T08:20:07;2.95;;;1.08;;
23782;SDS011;12071;50.850;4.446;2023-07-29T08:22:34;3.22;;;0.98;;
23782;SDS011;12071;50.850;4.446;2023-07-29T08:24:59;3.95;;;1.20;;
23782;SDS011;12071;50.850;4.446;2023-07-29T08:27:25;1.88;;;1.00;;
23782;SDS011;12071;50.850;4.446;2023-07-29T08:29:51;2.03;;;0.77;;
23782;SDS011;12071;50.850;4.446;2023-07-29T08:32:18;2.08;;;1.00;;
23782;SDS011;12071;50.850;4.446;2023-07-29T08:34:43;1.50;;;1.13;;
23782;SDS011;12071;50.850;4.446;2023-07-29T08:37:09;2.15;;;1.20;;
23782;SDS011;12071;50.850;4.446;2023-07-29T08:39:35;1.90;;;1.05;;
23782;SDS011;12071;50.850;4.446;2023-07-29T08:42:01;1.73;;;1.00;;
23782;SDS011;12071;50.850;4.446;2023-07-29T08:44:41;2.95;;;1.13;;
23782;SDS011;12071;50.850;4.446;2023-07-29T08:47:08;2.50;;;0.90;;
23782;SDS011;12071;50.850;4.446;2023-07-29T08:49:34;1.00;;;0.88;;
23782;SDS011;12071;50.850;4.446;2023-07-29T08:52:00;1.75;;;0.90;;
23782;SDS011;12071;50.850;4.446;2023-07-29T08:54:26;2.17;;;1.08;;
23782;SDS011;12071;50.850;4.446;2023-07-29T08:56:52;2.35;;;1.10;;
23782;SDS011;12071;50.850;4.446;2023-07-29T08:59:18;2.35;;;1.15;;
23782;SDS011;12071;50.850;4.446;2023-07-29T09:01:44;2.22;;;1.02;;
23782;SDS011;12071;50.850;4.446;2023-07-29T09:04:10;1.63;;;1.02;;
23782;SDS011;12071;50.850;4.446;2023-07-29T09:06:36;2.75;;;1.20;;
23782;SDS011;12071;50.850;4.446;2023-07-29T09:09:05;1.10;;;1.00;;
23782;SDS011;12071;50.850;4.446;2023-07-29T09:11:32;1.60;;;1.20;;
23782;SDS011;12071;50.850;4.446;2023-07-29T09:13:58;1.45;;;1.20;;
23782;SDS011;12071;50.850;4.446;2023-07-29T09:16:24;2.20;;;1.20;;
23782;SDS011;12071;50.850;4.446;2023-07-29T09:18:50;3.00;;;1.10;;
23782;SDS011;12071;50.850;4.446;2023-07-29T09:21:20;1.30;;;1.15;;
23782;SDS011;12071;50.850;4.446;2023-07-29T09:23:50;1.27;;;1.10;;
23782;SDS011;12071;50.850;4.446;2023-07-29T09:26:28;2.00;;;1.20;;
23782;SDS011;12071;50.850;4.446;2023-07-29T09:28:55;2.70;;;1.42;;
23782;SDS011;12071;50.850;4.446;2023-07-29T09:31:22;1.95;;;1.10;;
23782;SDS011;12071;50.850;4.446;2023-07-29T09:33:49;4.63;;;1.30;;
23782;SDS011;12071;50.850;4.446;2023-07-29T09:36:21;1.15;;;1.02;;
23782;SDS011;12071;50.850;4.446;2023-07-29T09:38:47;1.90;;;1.10;;
23782;SDS011;12071;50.850;4.446;2023-07-29T09:41:13;2.10;;;1.33;;
23782;SDS011;12071;50.850;4.446;2023-07-29T09:43:40;1.38;;;1.10;;
23782;SDS011;12071;50.850;4.446;2023-07-29T09:46:06;1.65;;;1.10;;
23782;SDS011;12071;50.850;4.446;2023-07-29T09:48:34;2.45;;;1.10;;
23782;SDS011;12071;50.850;4.446;2023-07-29T09:51:14;2.10;;;1.10;;
23782;SDS011;12071;50.850;4.446;2023-07-29T09:53:44;2.88;;;1.23;;
23782;SDS011;12071;50.850;4.446;2023-07-29T09:56:13;3.60;;;1.30;;
23782;SDS011;12071;50.850;4.446;2023-07-29T09:58:40;1.55;;;1.13;;
23782;SDS011;12071;50.850;4.446;2023-07-29T10:01:08;3.38;;;1.20;;
23782;SDS011;12071;50.850;4.446;2023-07-29T10:03:34;1.45;;;1.20;;
23782;SDS011;12071;50.850;4.446;2023-07-29T10:06:01;1.27;;;1.10;;
23782;SDS011;12071;50.850;4.446;2023-07-29T10:08:29;1.88;;;1.17;;
23782;SDS011;12071;50.850;4.446;2023-07-29T10:10:57;2.90;;;1.00;;
23782;SDS011;12071;50.850;4.446;2023-07-29T10:13:24;5.20;;;1.50;;
23782;SDS011;12071;50.850;4.446;2023-07-29T10:15:51;2.47;;;1.20;;
23782;SDS011;12071;50.850;4.446;2023-07-29T10:18:18;3.42;;;1.50;;
23782;SDS011;12071;50.850;4.446;2023-07-29T10:20:47;1.63;;;1.30;;
23782;SDS011;12071;50.850;4.446;2023-07-29T10:23:15;2.08;;;1.30;;
23782;SDS011;12071;50.850;4.446;2023-07-29T10:25:46;1.83;;;1.10;;
23782;SDS011;12071;50.850;4.446;2023-07-29T10:28:15;3.30;;;1.40;;
23782;SDS011;12071;50.850;4.446;2023-07-29T10:30:42;3.20;;;1.30;;
23782;SDS011;12071;50.850;4.446;2023-07-29T10:33:08;2.28;;;1.30;;
23782;SDS011;12071;50.850;4.446;2023-07-29T10:35:35;1.73;;;1.10;;
23782;SDS011;12071;50.850;4.446;2023-07-29T10:38:02;1.45;;;1.17;;
23782;SDS011;12071;50.850;4.446;2023-07-29T10:40:44;2.75;;;1.40;;
23782;SDS011;12071;50.850;4.446;2023-07-29T10:43:19;2.15;;;1.60;;
23782;SDS011;12071;50.850;4.446;2023-07-29T10:45:52;3.00;;;1.50;;
23782;SDS011;12071;50.850;4.446;2023-07-29T10:53:46;1.90;;;1.70;;
23782;SDS011;12071;50.850;4.446;2023-07-29T10:56:12;2.78;;;1.90;;
23782;SDS011;12071;50.850;4.446;2023-07-29T10:58:38;3.80;;;2.13;;
23782;SDS011;12071;50.850;4.446;2023-07-29T11:01:12;2.60;;;1.70;;
23782;SDS011;12071;50.850;4.446;2023-07-29T11:03:38;2.88;;;1.73;;
23782;SDS011;12071;50.850;4.446;2023-07-29T11:06:04;6.15;;;2.17;;
23782;SDS011;12071;50.850;4.446;2023-07-29T11:08:30;4.90;;;2.00;;
23782;SDS011;12071;50.850;4.446;2023-07-29T11:11:06;3.15;;;2.10;;
23782;SDS011;12071;50.850;4.446;2023-07-29T11:13:34;2.40;;;2.10;;
23782;SDS011;12071;50.850;4.446;2023-07-29T11:16:00;2.72;;;2.28;;
23782;SDS011;12071;50.850;4.446;2023-07-29T11:18:31;4.22;;;2.10;;
23782;SDS011;12071;50.850;4.446;2023-07-29T11:20:59;3.20;;;2.33;;
23782;SDS011;12071;50.850;4.446;2023-07-29T11:23:35;2.78;;;2.45;;
23782;SDS011;12071;50.850;4.446;2023-07-29T11:26:02;3.40;;;2.20;;
23782;SDS011;12071;50.850;4.446;2023-07-29T11:28:29;2.35;;;2.00;;
23782;SDS011;12071;50.850;4.446;2023-07-29T11:30:55;2.92;;;1.77;;
23782;SDS011;12071;50.850;4.446;2023-07-29T11:33:22;1.88;;;1.77;;
23782;SDS011;12071;50.850;4.446;2023-07-29T11:35:50;2.97;;;1.75;;
23782;SDS011;12071;50.850;4.446;2023-07-29T11:38:16;1.55;;;1.40;;
23782;SDS011;12071;50.850;4.446;2023-07-29T11:43:44;1.60;;;1.45;;
23782;SDS011;12071;50.850;4.446;2023-07-29T11:46:09;1.42;;;1.33;;
23782;SDS011;12071;50.850;4.446;2023-07-29T11:48:36;1.50;;;1.10;;
23782;SDS011;12071;50.850;4.446;2023-07-29T11:51:02;3.83;;;1.60;;
23782;SDS011;12071;50.850;4.446;2023-07-29T11:53:28;1.65;;;1.55;;
23782;SDS011;12071;50.850;4.446;2023-07-29T11:55:55;1.80;;;1.52;;
23782;SDS011;12071;50.850;4.446;2023-07-29T11:58:21;1.67;;;1.58;;
23782;SDS011;12071;50.850;4.446;2023-07-29T12:00:47;2.55;;;1.70;;
23782;SDS011;12071;50.850;4.446;2023-07-29T12:03:13;2.17;;;1.50;;
23782;SDS011;12071;50.850;4.446;2023-07-29T12:05:41;2.55;;;1.60;;
23782;SDS011;12071;50.850;4.446;2023-07-29T12:08:07;1.60;;;1.50;;
23782;SDS011;12071;50.850;4.446;2023-07-29T12:10:33;1.60;;;1.50;;
23782;SDS011;12071;50.850;4.446;2023-07-29T12:13:00;4.72;;;2.00;;
23782;SDS011;12071;50.850;4.446;2023-07-29T12:15:28;2.75;;;1.60;;
23782;SDS011;12071;50.850;4.446;2023-07-29T12:17:58;2.10;;;1.70;;
23782;SDS011;12071;50.850;4.446;2023-07-29T12:20:25;2.40;;;2.10;;
23782;SDS011;12071;50.850;4.446;2023-07-29T12:22:51;4.15;;;2.30;;
23782;SDS011;12071;50.850;4.446;2023-07-29T12:25:26;8.40;;;2.90;;
23782;SDS011;12071;50.850;4.446;2023-07-29T12:27:53;5.25;;;2.65;;
23782;SDS011;12071;50.850;4.446;2023-07-29T12:30:21;3.63;;;2.75;;
23782;SDS011;12071;50.850;4.446;2023-07-29T12:32:49;2.63;;;2.42;;
23782;SDS011;12071;50.850;4.446;2023-07-29T12:35:15;2.28;;;2.08;;
23782;SDS011;12071;50.850;4.446;2023-07-29T12:37:41;4.97;;;2.30;;
23782;SDS011;12071;50.850;4.446;2023-07-29T12:40:09;1.67;;;1.58;;
23782;SDS011;12071;50.850;4.446;2023-07-29T12:42:51;3.55;;;2.58;;
23782;SDS011;12071;50.850;4.446;2023-07-29T12:45:17;3.95;;;2.20;;
23782;SDS011;12071;50.850;4.446;2023-07-29T12:47:43;2.50;;;2.00;;
23782;SDS011;12071;50.850;4.446;2023-07-29T12:50:08;1.95;;;1.85;;
23782;SDS011;12071;50.850;4.446;2023-07-29T12:52:34;1.70;;;1.50;;
23782;SDS011;12071;50.850;4.446;2023-07-29T12:55:00;1.63;;;1.50;;
23782;SDS011;12071;50.850;4.446;2023-07-29T12:57:25;1.90;;;1.70;;
23782;SDS011;12071;50.850;4.446;2023-07-29T12:59:51;2.17;;;1.98;;
23782;SDS011;12071;50.850;4.446;2023-07-29T13:02:16;2.00;;;1.80;;
23782;SDS011;12071;50.850;4.446;2023-07-29T13:04:42;3.45;;;2.05;;
23782;SDS011;12071;50.850;4.446;2023-07-29T13:07:07;2.10;;;1.90;;
23782;SDS011;12071;50.850;4.446;2023-07-29T13:09:33;2.00;;;1.80;;
23782;SDS011;12071;50.850;4.446;2023-07-29T13:11:59;1.67;;;1.58;;
23782;SDS011;12071;50.850;4.446;2023-07-29T13:14:24;2.33;;;1.40;;
23782;SDS011;12071;50.850;4.446;2023-07-29T13:16:51;3.50;;;1.73;;
23782;SDS011;12071;50.850;4.446;2023-07-29T13:19:18;2.08;;;1.80;;
23782;SDS011;12071;50.850;4.446;2023-07-29T13:21:43;1.65;;;1.55;;
23782;SDS011;12071;50.850;4.446;2023-07-29T13:24:09;2.00;;;1.60;;
23782;SDS011;12071;50.850;4.446;2023-07-29T13:26:34;1.85;;;1.60;;
23782;SDS011;12071;50.850;4.446;2023-07-29T13:29:00;2.00;;;1.85;;
23782;SDS011;12071;50.850;4.446;2023-07-29T13:31:26;2.00;;;1.80;;
23782;SDS011;12071;50.850;4.446;2023-07-29T13:33:51;4.00;;;1.90;;
23782;SDS011;12071;50.850;4.446;2023-07-29T13:36:17;1.90;;;1.80;;
23782;SDS011;12071;50.850;4.446;2023-07-29T13:38:42;2.00;;;1.48;;
23782;SDS011;12071;50.850;4.446;2023-07-29T13:41:08;3.25;;;1.50;;
23782;SDS011;12071;50.850;4.446;2023-07-29T13:43:33;2.58;;;1.52;;
23782;SDS011;12071;50.850;4.446;2023-07-29T13:45:59;1.70;;;1.38;;
23782;SDS011;12071;50.850;4.446;2023-07-29T13:48:25;2.78;;;1.70;;
23782;SDS011;12071;50.850;4.446;2023-07-29T13:50:50;2.85;;;1.90;;
23782;SDS011;12071;50.850;4.446;2023-07-29T13:53:17;2.78;;;1.40;;
23782;SDS011;12071;50.850;4.446;2023-07-29T13:55:42;1.40;;;1.30;;
23782;SDS011;12071;50.850;4.446;2023-07-29T13:58:08;1.55;;;1.45;;
23782;SDS011;12071;50.850;4.446;2023-07-29T14:00:34;1.40;;;1.30;;
23782;SDS011;12071;50.850;4.446;2023-07-29T14:02:59;1.50;;;1.40;;
23782;SDS011;12071;50.850;4.446;2023-07-29T14:05:25;1.65;;;1.38;;
23782;SDS011;12071;50.850;4.446;2023-07-29T14:07:50;1.40;;;1.15;;
23782;SDS011;12071;50.850;4.446;2023-07-29T14:10:16;1.10;;;0.90;;
23782;SDS011;12071;50.850;4.446;2023-07-29T14:12:42;1.95;;;0.90;;
23782;SDS011;12071;50.850;4.446;2023-07-29T14:15:07;3.45;;;1.20;;
23782;SDS011;12071;50.850;4.446;2023-07-29T14:17:33;2.05;;;1.10;;
23782;SDS011;12071;50.850;4.446;2023-07-29T14:19:59;1.00;;;0.80;;
23782;SDS011;12071;50.850;4.446;2023-07-29T14:22:24;2.47;;;1.00;;
23782;SDS011;12071;50.850;4.446;2023-07-29T14:24:50;0.98;;;0.98;;
23782;SDS011;12071;50.850;4.446;2023-07-29T14:27:15;1.10;;;1.00;;
23782;SDS011;12071;50.850;4.446;2023-07-29T14:29:41;2.55;;;1.20;;
23782;SDS011;12071;50.850;4.446;2023-07-29T14:32:07;1.85;;;0.95;;
23782;SDS011;12071;50.850;4.446;2023-07-29T14:34:33;2.05;;;1.00;;
23782;SDS011;12071;50.850;4.446;2023-07-29T14:36:58;1.05;;;1.05;;
23782;SDS011;12071;50.850;4.446;2023-07-29T14:39:24;1.27;;;1.00;;
23782;SDS011;12071;50.850;4.446;2023-07-29T14:41:50;1.75;;;1.05;;
23782;SDS011;12071;50.850;4.446;2023-07-29T14:44:15;1.77;;;1.00;;
23782;SDS011;12071;50.850;4.446;2023-07-29T14:46:41;1.40;;;1.05;;
23782;SDS011;12071;50.850;4.446;2023-07-29T14:49:06;1.20;;;1.00;;
23782;SDS011;12071;50.850;4.446;2023-07-29T14:51:32;2.33;;;0.80;;
23782;SDS011;12071;50.850;4.446;2023-07-29T14:53:57;1.13;;;1.00;;
23782;SDS011;12071;50.850;4.446;2023-07-29T14:56:23;2.83;;;0.88;;
23782;SDS011;12071;50.850;4.446;2023-07-29T14:58:49;1.80;;;1.35;;
23782;SDS011;12071;50.850;4.446;2023-07-29T15:01:15;1.45;;;1.33;;